Time;durP1;ratioP1;P1;durP2;ratioP2;P2;SDS_P1;SDS_P2;PMS_P1;PMS_P2;Temp;Humidity;BMP_temperature;BMP_pressure;BME280_temperature;BME280_humidity;BME280_pressure;Samples;Min_cycle;Max_cycle;Signal;HPM_P1;HPM_P2
2023/07/06 00:01:19;;;;;;;;;;;;;;;23.52;54.32;99377.59;3157775;28;20484;-69
2023/07/06 00:02:51;;;;;;;;;;;;;;;23.51;54.64;99382.06;3163440;28;20424;-69
2023/07/06 00:04:23;;;;;;;;;;;;;;;23.48;54.36;99374.41;3166720;28;19923;-69
2023/07/06 00:05:54;;;;;;;;;;;;;;;23.48;54.79;99382.38;3166094;28;20529;-69
2023/07/06 00:07:26;;;;;;;;;;;;;;;23.47;55.01;99374.59;3166455;28;19923;-69
2023/07/06 00:08:58;;;;;;;;;;;;;;;23.46;54.66;99379.06;3166405;28;20224;-69
2023/07/06 00:10:31;;;;;;;;;;;;;;;23.47;55.00;99386.03;3166554;28;19966;-69
2023/07/06 00:12:02;;;;;;;;;;;;;;;23.47;54.76;99387.88;3166265;28;20428;-69
2023/07/06 00:13:34;;;;;;;;;;;;;;;23.49;54.74;99385.91;3166153;28;19924;-69
2023/07/06 00:15:06;;;;;;;;;;;;;;;23.48;55.01;99378.91;3165930;28;20558;-69
2023/07/06 00:16:41;;;;;;;;;;;;;;;23.49;54.70;99381.41;3162440;28;20134;-69
2023/07/06 00:18:13;;;;;;;;;;;;;;;23.50;55.02;99385.72;3166470;28;19931;-69
2023/07/06 00:19:46;;;;;;;;;;;;;;;23.50;55.14;99387.53;3166221;28;19971;-69
2023/07/06 00:21:18;;;;;;;;;;;;;;;23.48;54.80;99389.53;3166498;28;19927;-69
2023/07/06 00:22:49;;;;;;;;;;;;;;;23.47;55.10;99385.22;3166623;28;19935;-69
2023/07/06 00:24:24;;;;;;;;;;;;;;;23.44;55.06;99393.50;3165897;28;19980;-69
2023/07/06 00:25:54;;;;;;;;;;;;;;;23.41;55.36;99391.19;3166485;28;20452;-69
2023/07/06 00:27:28;;;;;;;;;;;;;;;23.39;55.31;99386.00;3166233;28;19954;-68
2023/07/06 00:28:59;;;;;;;;;;;;;;;23.38;55.37;99387.84;3166329;28;19931;-69
2023/07/06 00:30:41;;;;;;;;;;;;;;;23.38;55.41;99385.19;3166271;28;19924;-69
2023/07/06 00:32:15;;;;;;;;;;;;;;;23.41;55.29;99392.00;3166793;28;19924;-70
2023/07/06 00:33:47;;;;;;;;;;;;;;;23.40;55.19;99382.38;3166438;28;19972;-68
2023/07/06 00:35:20;;;;;;;;;;;;;;;23.41;55.06;99389.34;3166247;28;19949;-69
2023/07/06 00:36:52;;;;;;;;;;;;;;;23.39;54.86;99386.84;3166291;28;19927;-68
2023/07/06 00:38:23;;;;;;;;;;;;;;;23.37;55.12;99394.16;3166338;28;20385;-68
2023/07/06 00:39:56;;;;;;;;;;;;;;;23.36;55.30;99395.13;3164856;28;20159;-69
2023/07/06 00:41:27;;;;;;;;;;;;;;;23.35;54.90;99398.78;3165949;28;19947;-68
2023/07/06 00:43:00;;;;;;;;;;;;;;;23.31;55.05;99388.66;3164342;28;20002;-69
2023/07/06 00:44:51;;;;;;;;;;;;;;;23.30;54.96;99395.78;3158436;28;19934;-69
2023/07/06 00:46:24;;;;;;;;;;;;;;;23.28;55.17;99389.81;3165922;28;19977;-68
2023/07/06 00:47:57;;;;;;;;;;;;;;;23.28;55.49;99392.47;3165633;28;20007;-69
2023/07/06 00:49:29;;;;;;;;;;;;;;;23.29;55.48;99393.31;3165925;28;20639;-69
2023/07/06 00:51:03;;;;;;;;;;;;;;;23.29;55.47;99393.31;3165941;28;19923;-69
2023/07/06 00:52:36;;;;;;;;;;;;;;;23.30;55.55;99386.97;3165373;28;20010;-69
2023/07/06 00:54:12;;;;;;;;;;;;;;;23.30;55.23;99381.66;3165688;28;19931;-68
2023/07/06 00:55:44;;;;;;;;;;;;;;;23.29;55.26;99388.81;3165803;28;19923;-69
2023/07/06 00:57:17;;;;;;;;;;;;;;;23.29;55.38;99385.34;3165446;28;19931;-68
2023/07/06 00:58:50;;;;;;;;;;;;;;;23.29;55.23;99391.47;3165891;28;19923;-68
2023/07/06 01:00:21;;;;;;;;;;;;;;;23.29;55.23;99391.47;3164233;28;19930;-68
2023/07/06 01:01:52;;;;;;;;;;;;;;;23.30;55.56;99393.13;3154288;28;20376;-69
2023/07/06 01:03:23;;;;;;;;;;;;;;;23.29;55.34;99385.34;3166056;28;19923;-68
2023/07/06 01:04:55;;;;;;;;;;;;;;;23.29;55.26;99390.66;3165590;28;19949;-69
2023/07/06 01:06:29;;;;;;;;;;;;;;;23.31;55.10;99384.19;3165716;28;19923;-68
2023/07/06 01:08:05;;;;;;;;;;;;;;;23.32;55.17;99385.00;3165929;28;20389;-68
2023/07/06 01:09:37;;;;;;;;;;;;;;;23.34;55.11;99383.84;3165089;28;20369;-70
2023/07/06 01:11:14;;;;;;;;;;;;;;;23.34;55.02;99383.84;3165847;28;20013;-70
2023/07/06 01:12:46;;;;;;;;;;;;;;;23.34;55.01;99375.88;3165756;28;19924;-69
2023/07/06 01:14:18;;;;;;;;;;;;;;;23.33;55.10;99374.19;3165559;28;20503;-69
2023/07/06 01:15:49;;;;;;;;;;;;;;;23.31;55.08;99381.53;3165855;28;19923;-70
2023/07/06 01:17:24;;;;;;;;;;;;;;;23.33;54.97;99381.34;3153342;28;19924;-69
2023/07/06 01:19:01;;;;;;;;;;;;;;;23.31;54.87;99376.22;3161568;28;19927;-70
2023/07/06 01:20:34;;;;;;;;;;;;;;;23.31;55.05;99375.38;3165654;28;19924;-70
2023/07/06 01:22:13;;;;;;;;;;;;;;;23.29;54.99;99370.22;3165937;28;19979;-69
2023/07/06 01:24:06;;;;;;;;;;;;;;;23.32;55.12;99367.22;3165215;28;20440;-69
2023/07/06 01:25:46;;;;;;;;;;;;;;;23.33;55.02;99371.53;3165358;28;20400;-69
2023/07/06 01:27:31;;;;;;;;;;;;;;;23.33;55.06;99366.22;3165284;28;19928;-69
2023/07/06 01:29:24;;;;;;;;;;;;;;;23.36;54.93;99370.41;3165737;28;19930;-69
2023/07/06 01:31:06;;;;;;;;;;;;;;;23.39;54.84;99370.06;3165470;28;19923;-69
2023/07/06 01:32:40;;;;;;;;;;;;;;;23.37;54.62;99372.06;3165458;28;19978;-69
2023/07/06 01:34:16;;;;;;;;;;;;;;;23.36;54.71;99371.22;3165557;28;19930;-69
2023/07/06 01:35:52;;;;;;;;;;;;;;;23.30;54.83;99355.09;3160036;28;19950;-69
2023/07/06 01:37:25;;;;;;;;;;;;;;;23.34;55.03;99364.44;3152968;28;19924;-69
2023/07/06 01:39:13;;;;;;;;;;;;;;;23.32;55.16;99361.91;3165421;28;20006;-70
2023/07/06 01:40:44;;;;;;;;;;;;;;;23.31;55.12;99373.56;3152116;28;19923;-70
2023/07/06 01:42:25;;;;;;;;;;;;;;;23.31;55.18;99368.25;3165333;28;19927;-70
2023/07/06 01:43:57;;;;;;;;;;;;;;;23.34;54.91;99367.09;3165382;28;20725;-69
2023/07/06 01:45:29;;;;;;;;;;;;;;;23.35;55.11;99377.53;3165082;28;19928;-68
2023/07/06 01:47:01;;;;;;;;;;;;;;;23.36;54.83;99376.53;3165501;28;20497;-70
2023/07/06 01:48:34;;;;;;;;;;;;;;;23.38;54.88;99381.69;3165467;28;20161;-69
2023/07/06 01:50:09;;;;;;;;;;;;;;;23.40;54.64;99366.44;3165253;28;20264;-69
2023/07/06 01:51:46;;;;;;;;;;;;;;;23.33;54.85;99352.94;3165496;28;19962;-68
2023/07/06 01:53:21;;;;;;;;;;;;;;;23.43;54.91;99365.28;3165084;28;19962;-68
2023/07/06 01:54:58;;;;;;;;;;;;;;;23.43;54.92;99359.97;3165342;28;20662;-68
2023/07/06 01:56:35;;;;;;;;;;;;;;;23.43;54.95;99359.97;3164809;28;19971;-68
2023/07/06 01:58:09;;;;;;;;;;;;;;;23.41;55.03;99356.63;3165195;28;19980;-69
2023/07/06 01:59:47;;;;;;;;;;;;;;;23.36;55.13;99355.28;3165645;28;19931;-69
2023/07/06 02:01:21;;;;;;;;;;;;;;;23.32;55.37;99356.59;3156375;28;20381;-68
2023/07/06 02:02:52;;;;;;;;;;;;;;;23.31;55.15;99354.94;3162577;28;20022;-68
2023/07/06 02:04:25;;;;;;;;;;;;;;;23.32;55.34;99356.59;3165004;28;19930;-68
2023/07/06 02:05:56;;;;;;;;;;;;;;;23.33;55.21;99352.13;3165147;28;19970;-68
2023/07/06 02:07:28;;;;;;;;;;;;;;;23.35;55.12;99366.09;3165290;28;19927;-68
2023/07/06 02:09:00;;;;;;;;;;;;;;;23.35;54.99;99363.44;3165064;28;19923;-69
2023/07/06 02:10:30;;;;;;;;;;;;;;;23.35;55.44;99361.59;3165169;28;19924;-68
2023/07/06 02:12:03;;;;;;;;;;;;;;;23.32;55.35;99364.56;3165196;28;19928;-69
2023/07/06 02:13:34;;;;;;;;;;;;;;;23.32;55.30;99371.72;3165220;28;20404;-69
2023/07/06 02:15:06;;;;;;;;;;;;;;;23.32;55.30;99369.88;3165004;28;19924;-69
2023/07/06 02:16:38;;;;;;;;;;;;;;;23.31;55.50;99368.25;3159550;28;21200;-68
2023/07/06 02:18:09;;;;;;;;;;;;;;;23.28;55.51;99371.22;3165423;28;19927;-68
2023/07/06 02:19:42;;;;;;;;;;;;;;;23.26;55.63;99367.88;3164867;28;20040;-68
2023/07/06 02:21:13;;;;;;;;;;;;;;;23.27;55.75;99372.19;3166533;28;19962;-68
2023/07/06 02:22:44;;;;;;;;;;;;;;;23.25;55.93;99371.53;3168025;28;19959;-68
2023/07/06 02:24:17;;;;;;;;;;;;;;;23.23;56.06;99372.69;3149084;28;19924;-69
2023/07/06 02:25:47;;;;;;;;;;;;;;;23.24;56.00;99382.31;3167908;28;19927;-69
2023/07/06 02:27:19;;;;;;;;;;;;;;;23.24;55.89;99372.50;3167653;28;19966;-69
2023/07/06 02:28:52;;;;;;;;;;;;;;;23.23;56.13;99376.19;3167951;28;19928;-69
2023/07/06 02:30:23;;;;;;;;;;;;;;;23.24;55.84;99380.47;3167705;28;20777;-69
2023/07/06 02:31:54;;;;;;;;;;;;;;;23.24;56.15;99372.50;3162958;28;19924;-70
2023/07/06 02:33:27;;;;;;;;;;;;;;;23.24;56.15;99371.69;3163221;28;19930;-70
2023/07/06 02:34:59;;;;;;;;;;;;;;;23.25;56.23;99371.53;3167334;28;20057;-68
2023/07/06 02:36:31;;;;;;;;;;;;;;;23.24;56.31;99372.50;3157248;28;19923;-69
2023/07/06 02:38:01;;;;;;;;;;;;;;;23.24;56.25;99371.69;3160025;28;19924;-68
2023/07/06 02:39:33;;;;;;;;;;;;;;;23.25;56.29;99373.34;3167352;28;19924;-68
2023/07/06 02:41:04;;;;;;;;;;;;;;;23.23;56.31;99370.03;3167458;28;20317;-68
2023/07/06 02:42:35;;;;;;;;;;;;;;;23.22;56.39;99371.88;3167440;28;19928;-68
2023/07/06 02:44:07;;;;;;;;;;;;;;;23.23;56.11;99370.88;3167271;28;19924;-68
2023/07/06 02:45:38;;;;;;;;;;;;;;;23.24;56.38;99377.81;3167441;28;20375;-68
2023/07/06 02:47:10;;;;;;;;;;;;;;;23.18;56.17;99367.84;3167549;28;19974;-68
2023/07/06 02:48:41;;;;;;;;;;;;;;;23.24;56.46;99377.00;3167219;28;19923;-68
2023/07/06 02:50:14;;;;;;;;;;;;;;;23.23;56.44;99373.53;3167574;28;20519;-68
2023/07/06 02:51:46;;;;;;;;;;;;;;;23.24;56.30;99371.69;3166999;28;19927;-69
2023/07/06 02:53:18;;;;;;;;;;;;;;;23.25;56.62;99373.34;3167309;28;19923;-69
2023/07/06 02:54:49;;;;;;;;;;;;;;;23.24;56.61;99374.34;3167342;28;19973;-69
2023/07/06 02:56:20;;;;;;;;;;;;;;;23.25;56.50;99366.22;3167341;28;20018;-69
2023/07/06 02:57:52;;;;;;;;;;;;;;;23.25;56.38;99368.03;3167124;28;19984;-68
2023/07/06 02:59:23;;;;;;;;;;;;;;;23.26;56.54;99365.22;3167213;28;20339;-69
2023/07/06 03:00:55;;;;;;;;;;;;;;;23.24;56.47;99367.19;3161621;28;19924;-69
2023/07/06 03:02:26;;;;;;;;;;;;;;;23.25;56.47;99371.53;3161210;28;19947;-69
2023/07/06 03:03:57;;;;;;;;;;;;;;;23.25;56.42;99363.56;3167435;28;19930;-69
2023/07/06 03:05:30;;;;;;;;;;;;;;;23.26;56.45;99359.91;3167026;28;20324;-69
2023/07/06 03:07:01;;;;;;;;;;;;;;;23.27;56.41;99350.13;3167111;28;19923;-69
2023/07/06 03:08:32;;;;;;;;;;;;;;;23.27;56.82;99358.09;3167404;28;19980;-69
2023/07/06 03:10:05;;;;;;;;;;;;;;;23.26;56.51;99353.78;3166728;28;19933;-70
2023/07/06 03:11:36;;;;;;;;;;;;;;;23.26;56.70;99351.13;3167527;28;20045;-70
2023/07/06 03:13:08;;;;;;;;;;;;;;;23.26;56.70;99359.09;3167157;28;19924;-70
2023/07/06 03:14:38;;;;;;;;;;;;;;;23.21;56.60;99350.75;3167586;28;19924;-69
2023/07/06 03:16:10;;;;;;;;;;;;;;;23.27;56.87;99361.56;3164969;28;19930;-69
2023/07/06 03:17:42;;;;;;;;;;;;;;;23.27;56.71;99352.78;3154169;28;19924;-68
2023/07/06 03:19:14;;;;;;;;;;;;;;;23.28;56.74;99357.06;3165630;28;20501;-69
2023/07/06 03:20:48;;;;;;;;;;;;;;;23.27;57.01;99350.94;3167160;28;19924;-68
2023/07/06 03:22:20;;;;;;;;;;;;;;;23.27;56.96;99350.94;3167186;28;20000;-68
2023/07/06 03:23:51;;;;;;;;;;;;;;;23.29;56.70;99353.44;3166887;28;20030;-68
2023/07/06 03:25:23;;;;;;;;;;;;;;;23.28;56.99;99347.31;3166442;28;19923;-68
2023/07/06 03:26:54;;;;;;;;;;;;;;;23.28;56.91;99346.44;3167013;28;20399;-68
2023/07/06 03:28:28;;;;;;;;;;;;;;;23.28;56.94;99352.63;3159898;28;19998;-69
2023/07/06 03:29:59;;;;;;;;;;;;;;;23.29;56.61;99353.44;3161271;28;19924;-68
2023/07/06 03:31:32;;;;;;;;;;;;;;;23.28;57.01;99344.66;3167131;28;20369;-68
2023/07/06 03:33:02;;;;;;;;;;;;;;;23.15;57.00;99330.97;3151364;28;20547;-69
2023/07/06 03:34:35;;;;;;;;;;;;;;;23.23;56.99;99341.63;3166864;28;19923;-68
2023/07/06 03:36:08;;;;;;;;;;;;;;;23.28;57.14;99349.97;3166955;28;19946;-68
2023/07/06 03:37:41;;;;;;;;;;;;;;;23.29;56.76;99354.28;3166654;28;19938;-69
2023/07/06 03:39:12;;;;;;;;;;;;;;;23.30;56.83;99355.09;3166714;28;19973;-69
2023/07/06 03:40:48;;;;;;;;;;;;;;;23.29;56.75;99354.28;3166786;28;19923;-68
2023/07/06 03:42:19;;;;;;;;;;;;;;;23.30;56.89;99358.59;3166632;28;19945;-68
2023/07/06 03:43:56;;;;;;;;;;;;;;;23.31;57.07;99354.13;3167158;28;19923;-68
2023/07/06 03:45:30;;;;;;;;;;;;;;;23.31;57.02;99354.94;3166907;28;19924;-68
2023/07/06 03:47:01;;;;;;;;;;;;;;;23.32;57.02;99348.63;3166335;28;19927;-68
2023/07/06 03:48:32;;;;;;;;;;;;;;;23.33;57.13;99350.28;3166796;28;20441;-67
2023/07/06 03:50:04;;;;;;;;;;;;;;;23.33;56.89;99352.13;3166908;28;19923;-68
2023/07/06 03:51:36;;;;;;;;;;;;;;;23.32;57.05;99351.28;3166409;28;19935;-69
2023/07/06 03:53:08;;;;;;;;;;;;;;;23.35;56.83;99350.97;3166796;28;20292;-69
2023/07/06 03:54:40;;;;;;;;;;;;;;;23.36;57.13;99349.97;3166462;28;19950;-68
2023/07/06 03:56:10;;;;;;;;;;;;;;;23.38;56.72;99348.00;3166895;28;19930;-69
2023/07/06 03:57:45;;;;;;;;;;;;;;;23.41;56.91;99341.53;3169645;28;19923;-68
2023/07/06 03:59:16;;;;;;;;;;;;;;;23.43;57.03;99341.38;3171641;28;19920;-69
2023/07/06 04:00:48;;;;;;;;;;;;;;;23.45;56.70;99344.69;3167340;28;19924;-69
2023/07/06 04:02:20;;;;;;;;;;;;;;;23.46;57.01;99339.22;3164222;28;19998;-68
2023/07/06 04:03:52;;;;;;;;;;;;;;;23.46;57.15;99341.88;3171963;28;19919;-69
2023/07/06 04:05:30;;;;;;;;;;;;;;;23.48;57.11;99344.34;3171458;28;19924;-69
2023/07/06 04:07:03;;;;;;;;;;;;;;;23.50;56.84;99345.84;3171607;28;19920;-69
2023/07/06 04:08:35;;;;;;;;;;;;;;;23.52;56.85;99346.53;3171587;28;20023;-69
2023/07/06 04:10:07;;;;;;;;;;;;;;;23.53;57.23;99350.00;3171763;28;20010;-68
2023/07/06 04:11:39;;;;;;;;;;;;;;;23.54;57.12;99347.19;3171818;28;20392;-68
2023/07/06 04:13:09;;;;;;;;;;;;;;;23.55;57.07;99342.72;3171947;28;19927;-69
2023/07/06 04:14:41;;;;;;;;;;;;;;;23.55;57.00;99343.53;3172145;28;19920;-69
2023/07/06 04:16:16;;;;;;;;;;;;;;;23.57;57.35;99341.56;3169029;28;19955;-68
2023/07/06 04:17:48;;;;;;;;;;;;;;;23.58;57.34;99345.03;3170973;28;19924;-69
2023/07/06 04:19:18;;;;;;;;;;;;;;;23.60;57.43;99345.69;3171882;28;20006;-68
2023/07/06 04:20:52;;;;;;;;;;;;;;;23.62;57.35;99344.53;3171318;28;19919;-68
2023/07/06 04:22:24;;;;;;;;;;;;;;;23.66;57.36;99346.88;3171289;28;20594;-68
2023/07/06 04:23:56;;;;;;;;;;;;;;;23.68;57.23;99343.06;3171044;28;20033;-68
2023/07/06 04:25:29;;;;;;;;;;;;;;;23.70;57.19;99340.28;3166967;28;19919;-68
2023/07/06 04:27:01;;;;;;;;;;;;;;;23.74;57.13;99346.91;3171584;28;19919;-68
2023/07/06 04:28:32;;;;;;;;;;;;;;;23.77;57.12;99350.06;3164760;28;19927;-69
2023/07/06 04:30:05;;;;;;;;;;;;;;;23.80;56.91;99341.75;3158855;28;19924;-68
2023/07/06 04:31:37;;;;;;;;;;;;;;;23.83;57.10;99356.56;3164371;28;19998;-69
2023/07/06 04:33:14;;;;;;;;;;;;;;;23.87;57.01;99349.06;3171323;28;19962;-68
2023/07/06 04:34:46;;;;;;;;;;;;;;;23.90;56.69;99351.41;3171224;28;19926;-68
2023/07/06 04:36:17;;;;;;;;;;;;;;;23.92;57.06;99358.22;3170836;28;19927;-68
2023/07/06 04:37:51;;;;;;;;;;;;;;;23.95;56.95;99354.41;3171664;28;19930;-69
2023/07/06 04:39:22;;;;;;;;;;;;;;;23.98;56.68;99357.56;3171059;28;19927;-69
2023/07/06 04:40:53;;;;;;;;;;;;;;;23.99;56.65;99355.75;3171249;28;19920;-69
2023/07/06 04:42:27;;;;;;;;;;;;;;;24.02;57.01;99355.41;3171744;28;19926;-69
2023/07/06 04:43:59;;;;;;;;;;;;;;;24.06;56.94;99356.72;3170783;28;19970;-69
2023/07/06 04:45:29;;;;;;;;;;;;;;;24.10;56.43;99351.91;3171241;28;20316;-69
2023/07/06 04:47:01;;;;;;;;;;;;;;;24.13;56.59;99355.06;3171180;28;19920;-69
2023/07/06 04:48:34;;;;;;;;;;;;;;;24.18;56.76;99357.22;3171108;28;20373;-69
2023/07/06 04:50:06;;;;;;;;;;;;;;;24.20;56.55;99361.38;3171054;28;20336;-69
2023/07/06 04:51:38;;;;;;;;;;;;;;;24.25;56.63;99355.53;3170652;28;19920;-68
2023/07/06 04:53:10;;;;;;;;;;;;;;;24.29;56.16;99363.03;3171218;28;19923;-68
2023/07/06 04:54:42;;;;;;;;;;;;;;;24.32;56.06;99361.88;3171017;28;19919;-68
2023/07/06 04:56:13;;;;;;;;;;;;;;;24.38;56.10;99371.00;3170956;28;19930;-69
2023/07/06 04:57:44;;;;;;;;;;;;;;;24.40;56.13;99358.34;3170735;28;19920;-69
2023/07/06 04:59:16;;;;;;;;;;;;;;;24.44;56.12;99367.72;3171174;28;20060;-69
2023/07/06 05:00:48;;;;;;;;;;;;;;;24.48;56.30;99367.19;3166483;28;20307;-69
2023/07/06 05:02:22;;;;;;;;;;;;;;;24.53;55.83;99372.00;3162725;28;19928;-69
2023/07/06 05:03:53;;;;;;;;;;;;;;;24.56;56.06;99370.84;3171212;28;19966;-69
2023/07/06 05:05:26;;;;;;;;;;;;;;;24.61;55.66;99373.81;3170765;28;19943;-69
2023/07/06 05:06:57;;;;;;;;;;;;;;;24.63;56.05;99377.97;3171230;28;20383;-69
2023/07/06 05:08:29;;;;;;;;;;;;;;;24.66;55.55;99374.97;3169458;28;19924;-68
2023/07/06 05:10:01;;;;;;;;;;;;;;;24.72;56.00;99370.78;3159042;28;20029;-68
2023/07/06 05:11:32;;;;;;;;;;;;;;;24.76;55.78;99374.78;3170454;28;19919;-69
2023/07/06 05:13:04;;;;;;;;;;;;;;;24.81;55.46;99375.09;3170956;28;20366;-70
2023/07/06 05:14:35;;;;;;;;;;;;;;;24.87;55.61;99370.91;3170977;28;20015;-70
2023/07/06 05:16:07;;;;;;;;;;;;;;;24.91;55.15;99377.56;3168779;28;19923;-70
2023/07/06 05:17:38;;;;;;;;;;;;;;;24.94;55.47;99372.72;3168833;28;19977;-69
2023/07/06 05:19:09;;;;;;;;;;;;;;;24.98;55.38;99378.53;3170833;28;20006;-68
2023/07/06 05:20:40;;;;;;;;;;;;;;;25.02;55.24;99371.84;3166063;28;19934;-70
2023/07/06 05:22:12;;;;;;;;;;;;;;;25.08;55.23;99376.50;3166014;28;19920;-69
2023/07/06 05:23:45;;;;;;;;;;;;;;;25.10;54.83;99369.16;3171147;28;19999;-70
2023/07/06 05:25:17;;;;;;;;;;;;;;;25.11;55.10;99373.50;3166710;28;19919;-68
2023/07/06 05:26:48;;;;;;;;;;;;;;;25.15;54.84;99388.16;3170427;28;20309;-70
2023/07/06 05:28:20;;;;;;;;;;;;;;;25.18;54.64;99379.81;3170448;28;19982;-69
2023/07/06 05:29:52;;;;;;;;;;;;;;;25.21;54.60;99377.81;3170764;28;20316;-69
2023/07/06 05:31:23;;;;;;;;;;;;;;;25.25;54.83;99384.44;3170626;28;19924;-69
2023/07/06 05:32:55;;;;;;;;;;;;;;;25.29;54.55;99385.75;3170450;28;19923;-69
2023/07/06 05:34:25;;;;;;;;;;;;;;;25.34;54.59;99384.22;3170906;28;19995;-68
2023/07/06 05:35:57;;;;;;;;;;;;;;;25.39;54.38;99386.38;3170247;28;19920;-69
2023/07/06 05:37:28;;;;;;;;;;;;;;;25.45;54.22;99385.69;3170345;28;20392;-69
2023/07/06 05:39:00;;;;;;;;;;;;;;;25.50;54.18;99377.16;3170640;28;20010;-69
2023/07/06 05:40:32;;;;;;;;;;;;;;;25.52;54.48;99380.47;3170752;28;19919;-69
2023/07/06 05:42:03;;;;;;;;;;;;;;;25.54;54.32;99381.97;3170304;28;19923;-69
2023/07/06 05:43:34;;;;;;;;;;;;;;;25.59;54.35;99387.59;3170518;28;19919;-69
2023/07/06 05:45:06;;;;;;;;;;;;;;;25.65;53.97;99388.72;3170427;28;19927;-69
2023/07/06 05:46:37;;;;;;;;;;;;;;;25.67;53.98;99385.88;3170383;28;19920;-69
2023/07/06 05:48:08;;;;;;;;;;;;;;;25.69;53.75;99383.88;3170283;28;19926;-68
2023/07/06 05:49:40;;;;;;;;;;;;;;;25.73;53.81;99382.50;3170165;28;19920;-68
2023/07/06 05:51:11;;;;;;;;;;;;;;;25.78;53.58;99377.47;3170078;28;20397;-69
2023/07/06 05:52:42;;;;;;;;;;;;;;;25.84;53.94;99377.63;3170595;28;19927;-69
2023/07/06 05:54:15;;;;;;;;;;;;;;;25.92;53.84;99370.56;3170521;28;19926;-70
2023/07/06 05:55:46;;;;;;;;;;;;;;;25.99;53.32;99376.84;3169918;28;19977;-70
2023/07/06 05:57:19;;;;;;;;;;;;;;;26.06;53.25;99378.63;3170573;28;19935;-70
2023/07/06 05:58:51;;;;;;;;;;;;;;;26.15;53.03;99378.53;3170269;28;19926;-70
2023/07/06 06:00:22;;;;;;;;;;;;;;;26.22;53.08;99371.50;3169537;28;19991;-67
2023/07/06 06:01:54;;;;;;;;;;;;;;;26.28;52.89;99370.75;3161133;28;19924;-70
2023/07/06 06:03:26;;;;;;;;;;;;;;;26.37;52.91;99380.34;3170686;28;19969;-69
2023/07/06 06:04:58;;;;;;;;;;;;;;;26.46;52.69;99373.91;3170051;28;19984;-70
2023/07/06 06:06:28;;;;;;;;;;;;;;;26.57;52.28;99377.19;3169998;28;19953;-69
2023/07/06 06:08:01;;;;;;;;;;;;;;;26.64;52.36;99372.78;3170244;28;19919;-69
2023/07/06 06:09:33;;;;;;;;;;;;;;;26.68;52.09;99371.38;3170666;28;19920;-70
2023/07/06 06:11:05;;;;;;;;;;;;;;;26.73;51.78;99380.50;3170343;28;20002;-70
2023/07/06 06:12:37;;;;;;;;;;;;;;;26.79;51.67;99378.94;3170372;28;19992;-69
2023/07/06 06:14:08;;;;;;;;;;;;;;;26.83;51.79;99379.41;3170594;28;19923;-69
2023/07/06 06:15:39;;;;;;;;;;;;;;;26.86;51.83;99379.88;3170591;28;19931;-69
2023/07/06 06:17:10;;;;;;;;;;;;;;;26.90;51.73;99380.34;3159648;28;20010;-70
2023/07/06 06:18:42;;;;;;;;;;;;;;;26.93;51.23;99378.09;3167151;28;19920;-70
2023/07/06 06:20:14;;;;;;;;;;;;;;;26.97;51.49;99376.72;3170546;28;19924;-69
2023/07/06 06:21:45;;;;;;;;;;;;;;;26.99;51.33;99382.72;3161743;28;19919;-70
2023/07/06 06:23:20;;;;;;;;;;;;;;;27.02;51.19;99384.19;3170200;28;19927;-70
2023/07/06 06:24:53;;;;;;;;;;;;;;;27.06;51.09;99377.44;3170400;28;20014;-69
2023/07/06 06:26:23;;;;;;;;;;;;;;;27.11;51.02;99382.25;3170387;28;19920;-70
2023/07/06 06:27:56;;;;;;;;;;;;;;;27.20;50.74;99376.63;3170011;28;19976;-69
2023/07/06 06:29:27;;;;;;;;;;;;;;;27.32;50.89;99384.19;3170003;28;19926;-70
2023/07/06 06:30:58;;;;;;;;;;;;;;;27.38;50.68;99381.56;3170583;28;20039;-70
2023/07/06 06:32:29;;;;;;;;;;;;;;;27.43;50.33;99376.50;3170571;28;19927;-70
2023/07/06 06:34:01;;;;;;;;;;;;;;;27.51;50.23;99374.72;3170387;28;19919;-69
2023/07/06 06:35:32;;;;;;;;;;;;;;;27.56;50.04;99366.97;3170517;28;19927;-69
2023/07/06 06:37:04;;;;;;;;;;;;;;;27.57;50.15;99364.09;3170459;28;19939;-69
2023/07/06 06:38:36;;;;;;;;;;;;;;;27.58;50.01;99372.97;3170283;28;19931;-69
2023/07/06 06:40:09;;;;;;;;;;;;;;;27.56;49.93;99370.44;3170262;28;20439;-69
2023/07/06 06:41:41;;;;;;;;;;;;;;;27.54;49.69;99367.16;3170250;28;20003;-70
2023/07/06 06:43:12;;;;;;;;;;;;;;;27.56;50.06;99359.75;3170211;28;19927;-69
2023/07/06 06:44:43;;;;;;;;;;;;;;;27.60;50.03;99366.41;3170408;28;19920;-69
2023/07/06 06:46:15;;;;;;;;;;;;;;;27.64;49.72;99362.31;3170156;28;19919;-70
2023/07/06 06:47:46;;;;;;;;;;;;;;;27.63;49.69;99360.69;3170298;28;19923;-69
2023/07/06 06:49:17;;;;;;;;;;;;;;;27.60;49.71;99350.34;3170276;28;20381;-69
2023/07/06 06:50:48;;;;;;;;;;;;;;;27.62;49.46;99358.19;3170277;28;19943;-69
2023/07/06 06:52:20;;;;;;;;;;;;;;;27.67;49.39;99353.09;3170314;28;19919;-70
2023/07/06 06:53:53;;;;;;;;;;;;;;;27.72;49.55;99353.34;3170299;28;19946;-69
2023/07/06 06:55:26;;;;;;;;;;;;;;;27.77;49.35;99350.91;3170265;28;19942;-69
2023/07/06 06:56:58;;;;;;;;;;;;;;;27.83;49.49;99354.69;3170057;28;20010;-70
2023/07/06 06:58:29;;;;;;;;;;;;;;;27.88;49.34;99354.97;3170172;28;20290;-70
2023/07/06 07:00:00;;;;;;;;;;;;;;;27.88;49.15;99350.44;3145196;28;19944;-70
2023/07/06 07:01:32;;;;;;;;;;;;;;;27.94;48.92;99345.34;3160121;28;20415;-70
2023/07/06 07:03:03;;;;;;;;;;;;;;;28.03;49.04;99350.34;3170215;28;20002;-70
2023/07/06 07:04:35;;;;;;;;;;;;;;;28.13;49.05;99345.50;3170035;28;19923;-69
2023/07/06 07:06:11;;;;;;;;;;;;;;;28.22;48.67;99354.22;3170052;28;19926;-70
2023/07/06 07:07:43;;;;;;;;;;;;;;;28.40;48.36;99355.59;3171074;28;20389;-69
2023/07/06 07:09:14;;;;;;;;;;;;;;;28.52;48.25;99356.75;3172330;28;19919;-69
2023/07/06 07:10:54;;;;;;;;;;;;;;;28.62;48.01;99357.19;3172298;28;19920;-69
2023/07/06 07:12:25;;;;;;;;;;;;;;;28.77;48.14;99357.91;3172740;28;19920;-70
2023/07/06 07:13:57;;;;;;;;;;;;;;;28.95;47.86;99354.69;3168782;28;19919;-70
2023/07/06 07:15:27;;;;;;;;;;;;;;;29.06;47.59;99358.69;3172442;28;20302;-70
2023/07/06 07:16:59;;;;;;;;;;;;;;;29.13;47.38;99354.19;3163041;28;20293;-70
2023/07/06 07:18:30;;;;;;;;;;;;;;;29.17;47.30;99360.81;3159954;28;19931;-70
2023/07/06 07:20:02;;;;;;;;;;;;;;;29.27;47.11;99356.91;3164170;28;19919;-70
2023/07/06 07:21:34;;;;;;;;;;;;;;;29.37;47.03;99363.56;3172107;28;19942;-70
2023/07/06 07:23:05;;;;;;;;;;;;;;;29.46;46.80;99356.13;3172554;28;19919;-70
2023/07/06 07:24:36;;;;;;;;;;;;;;;29.52;46.88;99362.56;3172257;28;19920;-70
2023/07/06 07:26:08;;;;;;;;;;;;;;;29.52;46.49;99351.81;3172232;28;19920;-70
2023/07/06 07:27:40;;;;;;;;;;;;;;;29.50;46.50;99354.72;3172183;28;19927;-70
2023/07/06 07:29:13;;;;;;;;;;;;;;;29.52;46.38;99357.19;3172482;28;19946;-70
2023/07/06 07:30:46;;;;;;;;;;;;;;;29.51;46.59;99361.72;3172449;28;19920;-70
2023/07/06 07:32:20;;;;;;;;;;;;;;;29.51;46.07;99361.72;3172518;28;19927;-70
2023/07/06 07:33:51;;;;;;;;;;;;;;;29.52;46.18;99355.34;3172094;28;19923;-70
2023/07/06 07:35:22;;;;;;;;;;;;;;;29.53;46.14;99362.38;3172290;28;19926;-70
2023/07/06 07:36:53;;;;;;;;;;;;;;;29.54;45.93;99360.50;3171861;28;19944;-70
2023/07/06 07:38:24;;;;;;;;;;;;;;;29.61;45.91;99356.81;3172170;28;19924;-69
2023/07/06 07:39:56;;;;;;;;;;;;;;;29.69;45.87;99361.19;3171792;28;19923;-70
2023/07/06 07:41:29;;;;;;;;;;;;;;;29.79;45.94;99363.47;3171849;28;19920;-69
2023/07/06 07:43:01;;;;;;;;;;;;;;;29.88;45.54;99356.88;3172108;28;19920;-70
2023/07/06 07:44:32;;;;;;;;;;;;;;;29.95;45.41;99354.19;3172253;28;19923;-70
2023/07/06 07:46:04;;;;;;;;;;;;;;;29.98;45.25;99354.59;3171911;28;20000;-70
2023/07/06 07:47:37;;;;;;;;;;;;;;;30.02;45.28;99361.19;3172466;28;19931;-70
2023/07/06 07:49:08;;;;;;;;;;;;;;;30.10;45.41;99354.81;3172319;28;20040;-70
2023/07/06 07:50:39;;;;;;;;;;;;;;;30.16;45.34;99349.44;3171643;28;20059;-70
2023/07/06 07:52:12;;;;;;;;;;;;;;;30.25;45.13;99349.25;3172223;28;19976;-70
2023/07/06 07:53:44;;;;;;;;;;;;;;;30.34;45.06;99356.06;3172033;28;20010;-70
2023/07/06 07:55:15;;;;;;;;;;;;;;;30.46;44.77;99354.38;3171927;28;19973;-70
2023/07/06 07:56:48;;;;;;;;;;;;;;;30.57;44.26;99353.75;3171647;28;19927;-70
2023/07/06 07:58:20;;;;;;;;;;;;;;;30.68;44.37;99354.97;3171849;28;20353;-70
2023/07/06 07:59:50;;;;;;;;;;;;;;;30.78;43.62;99351.84;3171825;28;20308;-70
2023/07/06 08:01:22;;;;;;;;;;;;;;;30.80;43.50;99356.00;3162446;28;19977;-70
2023/07/06 08:02:54;;;;;;;;;;;;;;;30.85;43.51;99354.53;3168503;28;19919;-70